Time;durP1;ratioP1;P1;durP2;ratioP2;P2;SDS_P1;SDS_P2;PMS_P1;PMS_P2;Temp;Humidity;BMP_temperature;BMP_pressure;BME280_temperature;BME280_humidity;BME280_pressure;Samples;Min_cycle;Max_cycle;Signal;HPM_P1;HPM_P2
2023/11/24 00:00:52;;;;;;;3.40;1.70;;;8.30;98.00;;;;;;4991206;28;21036;-68
2023/11/24 00:03:19;;;;;;;3.50;1.90;;;8.20;98.00;;;;;;4991123;28;20551;-67
2023/11/24 00:05:49;;;;;;;1.60;1.50;;;8.30;98.00;;;;;;4991064;28;20450;-67
2023/11/24 00:08:16;;;;;;;2.33;1.70;;;8.30;98.00;;;;;;4991253;28;20586;-67
2023/11/24 00:10:45;;;;;;;2.03;1.70;;;8.30;98.00;;;;;;4991219;28;20484;-69
2023/11/24 00:13:12;;;;;;;2.63;1.77;;;8.30;98.00;;;;;;4991073;28;20454;-68
2023/11/24 00:15:42;;;;;;;2.33;1.60;;;8.30;98.00;;;;;;4989914;28;20461;-68
2023/11/24 00:18:09;;;;;;;2.03;1.70;;;8.30;98.00;;;;;;4991479;28;20446;-68
2023/11/24 00:20:37;;;;;;;1.63;1.60;;;8.30;98.00;;;;;;4991336;28;20541;-68
2023/11/24 00:23:04;;;;;;;2.00;1.50;;;8.20;98.00;;;;;;4991267;28;20819;-68
2023/11/24 00:25:32;;;;;;;2.37;1.60;;;8.10;98.00;;;;;;4991317;28;20828;-67
2023/11/24 00:28:01;;;;;;;1.47;1.40;;;8.20;98.00;;;;;;4991060;28;20556;-68
2023/11/24 00:30:28;;;;;;;4.53;1.80;;;8.10;98.00;;;;;;4991153;28;20457;-67
2023/11/24 00:32:55;;;;;;;2.03;1.60;;;8.20;98.00;;;;;;4991453;28;20478;-67
2023/11/24 00:35:23;;;;;;;2.10;1.60;;;8.20;98.00;;;;;;4993203;28;20572;-68
2023/11/24 00:37:50;;;;;;;2.53;1.63;;;8.30;98.00;;;;;;4994260;28;20451;-67
2023/11/24 00:40:18;;;;;;;1.80;1.50;;;8.30;98.00;;;;;;4994129;28;20449;-67
2023/11/24 00:42:45;;;;;;;2.50;1.70;;;8.30;98.00;;;;;;4994248;28;20544;-67
2023/11/24 00:45:14;;;;;;;2.03;1.50;;;8.30;98.00;;;;;;4994478;28;20451;-68
2023/11/24 00:47:42;;;;;;;1.50;1.40;;;8.30;98.00;;;;;;4994173;28;20521;-67
2023/11/24 00:50:10;;;;;;;2.30;1.70;;;8.30;98.00;;;;;;4992850;28;20462;-68
2023/11/24 00:52:37;;;;;;;1.50;1.50;;;8.30;98.00;;;;;;4994341;28;20455;-68
2023/11/24 00:55:05;;;;;;;1.60;1.37;;;8.40;98.00;;;;;;4993795;28;20466;-68
2023/11/24 00:57:33;;;;;;;2.87;1.53;;;8.40;98.00;;;;;;4992775;28;20465;-67
2023/11/24 01:00:03;;;;;;;2.00;1.60;;;8.50;98.00;;;;;;4992664;28;20999;-67
2023/11/24 01:02:38;;;;;;;1.80;1.50;;;8.50;98.00;;;;;;4993939;28;20450;-68
2023/11/24 01:05:08;;;;;;;2.40;1.50;;;8.50;98.00;;;;;;4994258;28;20577;-68
2023/11/24 01:07:35;;;;;;;1.67;1.30;;;8.50;98.00;;;;;;4993568;28;20528;-67
2023/11/24 01:10:02;;;;;;;2.37;1.40;;;8.50;98.00;;;;;;4993644;28;20458;-67
2023/11/24 01:12:30;;;;;;;1.87;1.43;;;8.50;98.00;;;;;;4993659;28;20455;-67
2023/11/24 01:14:57;;;;;;;3.43;1.63;;;8.50;98.00;;;;;;4993133;28;20505;-68
2023/11/24 01:17:24;;;;;;;1.60;1.30;;;8.50;98.00;;;;;;4993611;28;20969;-68
2023/11/24 01:19:52;;;;;;;2.20;1.50;;;8.60;98.00;;;;;;4993414;28;20457;-67
2023/11/24 01:22:24;;;;;;;1.80;1.30;;;8.60;98.00;;;;;;4993615;28;20456;-68
2023/11/24 01:24:51;;;;;;;2.07;1.50;;;8.60;98.00;;;;;;4993629;28;20461;-67
2023/11/24 01:27:19;;;;;;;1.70;1.40;;;8.60;98.00;;;;;;4993540;28;20453;-68
2023/11/24 01:29:46;;;;;;;1.63;1.30;;;8.70;98.00;;;;;;4993415;28;20454;-67
2023/11/24 01:32:13;;;;;;;2.20;1.60;;;8.70;98.00;;;;;;4993844;28;20448;-67
2023/11/24 01:34:40;;;;;;;1.70;1.43;;;8.70;98.00;;;;;;4993631;28;20926;-68
2023/11/24 01:37:09;;;;;;;2.70;1.60;;;8.70;98.00;;;;;;4993636;28;20445;-68
2023/11/24 01:39:39;;;;;;;2.23;1.40;;;8.70;98.00;;;;;;4993431;28;20826;-68
2023/11/24 01:42:06;;;;;;;1.57;1.30;;;8.70;98.00;;;;;;4993566;28;20601;-69
2023/11/24 01:44:34;;;;;;;2.13;1.60;;;8.70;98.00;;;;;;4993521;28;20460;-67
2023/11/24 01:47:02;;;;;;;2.00;1.50;;;8.70;98.00;;;;;;4993226;28;20460;-68
2023/11/24 01:49:30;;;;;;;2.00;1.60;;;8.70;98.00;;;;;;4993268;28;20524;-68
2023/11/24 01:51:58;;;;;;;1.73;1.50;;;8.70;98.00;;;;;;4993134;28;20448;-68
2023/11/24 01:54:31;;;;;;;2.00;1.47;;;8.70;98.00;;;;;;4993031;28;20471;-68
2023/11/24 01:57:02;;;;;;;1.70;1.50;;;8.70;98.00;;;;;;4993257;28;20518;-68
2023/11/24 01:59:29;;;;;;;2.47;1.70;;;8.70;98.00;;;;;;4993160;28;20487;-67
2023/11/24 02:01:57;;;;;;;2.20;1.60;;;8.60;98.00;;;;;;4992919;28;20468;-68
2023/11/24 02:04:24;;;;;;;1.93;1.47;;;8.40;98.00;;;;;;4993163;28;20460;-68
2023/11/24 02:06:51;;;;;;;3.40;1.70;;;8.40;98.00;;;;;;4993148;28;20458;-68
2023/11/24 02:09:19;;;;;;;1.83;1.50;;;8.30;98.00;;;;;;4992919;28;20981;-67
2023/11/24 02:11:48;;;;;;;2.50;1.70;;;8.20;98.00;;;;;;4992958;28;20453;-68
2023/11/24 02:14:15;;;;;;;1.67;1.40;;;8.20;98.00;;;;;;4993211;28;20553;-69
2023/11/24 02:16:42;;;;;;;1.87;1.53;;;8.10;98.00;;;;;;4992872;28;20469;-67
2023/11/24 02:19:09;;;;;;;1.70;1.50;;;8.10;98.00;;;;;;4992826;28;20451;-68
2023/11/24 02:21:40;;;;;;;2.20;1.60;;;8.10;98.00;;;;;;4992815;28;20847;-67
2023/11/24 02:24:09;;;;;;;2.07;1.53;;;8.00;98.00;;;;;;4992207;28;20461;-67
2023/11/24 02:26:36;;;;;;;3.10;1.73;;;8.10;98.00;;;;;;4992120;28;20462;-67
2023/11/24 02:29:03;;;;;;;1.80;1.50;;;8.00;98.00;;;;;;4992204;28;20475;-67
2023/11/24 02:31:32;;;;;;;1.60;1.40;;;8.00;98.00;;;;;;4993197;28;20508;-67
2023/11/24 02:33:59;;;;;;;2.00;1.67;;;8.00;98.00;;;;;;4992406;28;20458;-67
2023/11/24 02:36:27;;;;;;;1.90;1.60;;;8.00;98.00;;;;;;4992282;28;20456;-67
2023/11/24 02:38:54;;;;;;;1.63;1.43;;;8.00;98.00;;;;;;4992396;28;20461;-66
2023/11/24 02:41:24;;;;;;;1.53;1.47;;;8.00;98.00;;;;;;4992279;28;20446;-67
2023/11/24 02:43:52;;;;;;;3.27;1.83;;;7.90;98.00;;;;;;4992519;28;20516;-68
2023/11/24 02:46:20;;;;;;;1.73;1.53;;;7.90;98.00;;;;;;4992178;28;20454;-67
2023/11/24 02:48:48;;;;;;;2.40;1.90;;;7.90;98.00;;;;;;4992276;28;20878;-67
2023/11/24 02:51:15;;;;;;;1.50;1.40;;;7.90;98.00;;;;;;4992132;28;20468;-67
2023/11/24 02:53:43;;;;;;;2.40;1.43;;;8.00;98.00;;;;;;4992084;28;20492;-68
2023/11/24 02:56:11;;;;;;;1.60;1.37;;;7.90;98.00;;;;;;4991214;28;20555;-67
2023/11/24 02:58:41;;;;;;;1.73;1.37;;;8.00;98.00;;;;;;4992050;28;20492;-67
2023/11/24 03:01:10;;;;;;;1.40;1.20;;;8.00;98.00;;;;;;4992041;28;20942;-67
2023/11/24 03:03:37;;;;;;;1.77;1.40;;;7.90;98.00;;;;;;4992051;28;20464;-67
2023/11/24 03:06:05;;;;;;;2.27;1.50;;;7.90;98.00;;;;;;4991712;28;20459;-68
2023/11/24 03:08:33;;;;;;;2.00;1.30;;;7.90;98.00;;;;;;4990671;28;20916;-68
2023/11/24 03:11:06;;;;;;;1.97;1.40;;;7.90;98.00;;;;;;4990506;28;20457;-68
2023/11/24 03:13:33;;;;;;;1.30;1.20;;;7.90;98.00;;;;;;4991844;28;20459;-67
2023/11/24 03:16:02;;;;;;;1.40;1.30;;;7.90;98.00;;;;;;4991690;28;20463;-67
2023/11/24 03:18:29;;;;;;;1.30;1.20;;;7.90;98.00;;;;;;4991703;28;20469;-67
2023/11/24 03:20:56;;;;;;;1.37;1.30;;;7.90;98.00;;;;;;4991666;28;20457;-67
2023/11/24 03:23:23;;;;;;;1.20;1.20;;;7.90;98.00;;;;;;4991684;28;20481;-68
2023/11/24 03:25:50;;;;;;;1.70;1.67;;;7.90;98.00;;;;;;4992067;28;20467;-67
2023/11/24 03:28:18;;;;;;;1.33;1.33;;;7.90;98.00;;;;;;4991608;28;21015;-67
2023/11/24 03:30:46;;;;;;;1.53;1.20;;;7.90;98.00;;;;;;4991650;28;20874;-68
2023/11/24 03:33:15;;;;;;;1.93;1.30;;;7.90;98.00;;;;;;4991475;28;20450;-68
2023/11/24 03:35:42;;;;;;;1.20;1.20;;;7.90;98.00;;;;;;4990445;28;20905;-67
2023/11/24 03:38:09;;;;;;;2.97;1.60;;;7.90;98.00;;;;;;4991702;28;20460;-67
2023/11/24 03:40:36;;;;;;;1.40;1.40;;;7.90;98.00;;;;;;4990419;28;20458;-67
2023/11/24 03:43:02;;;;;;;1.30;1.20;;;7.90;98.00;;;;;;4991422;28;20463;-68
2023/11/24 03:45:30;;;;;;;1.70;1.50;;;8.00;98.00;;;;;;4991520;28;20549;-68
2023/11/24 03:48:02;;;;;;;1.60;1.50;;;7.90;98.00;;;;;;4991332;28;20488;-67
2023/11/24 03:50:31;;;;;;;1.40;1.23;;;7.90;98.00;;;;;;4991667;28;20458;-67
2023/11/24 03:52:59;;;;;;;1.60;1.40;;;7.90;98.00;;;;;;4991596;28;20544;-67
2023/11/24 03:55:27;;;;;;;3.30;1.40;;;7.90;98.00;;;;;;4991656;28;20470;-68
2023/11/24 03:57:54;;;;;;;2.10;1.37;;;7.90;98.00;;;;;;4990415;28;20457;-67
2023/11/24 04:00:22;;;;;;;1.67;1.40;;;7.90;98.00;;;;;;4991565;28;20906;-67
2023/11/24 04:02:50;;;;;;;2.20;1.40;;;7.90;98.00;;;;;;4991414;28;20536;-68
2023/11/24 04:05:17;;;;;;;1.30;1.30;;;7.90;98.00;;;;;;4991588;28;20462;-67
2023/11/24 04:07:46;;;;;;;1.50;1.30;;;7.90;98.00;;;;;;4991532;28;20541;-68
2023/11/24 04:10:18;;;;;;;2.20;1.50;;;8.00;98.00;;;;;;4995045;28;20490;-67
2023/11/24 04:12:46;;;;;;;1.50;1.30;;;8.00;98.00;;;;;;4995089;28;20529;-67
2023/11/24 04:15:13;;;;;;;1.30;1.30;;;8.00;98.00;;;;;;4993940;28;20468;-67
2023/11/24 04:17:40;;;;;;;1.40;1.30;;;8.00;98.00;;;;;;4995125;28;20851;-67
2023/11/24 04:20:10;;;;;;;2.23;1.60;;;8.00;98.00;;;;;;4994775;28;20452;-67
2023/11/24 04:22:37;;;;;;;1.80;1.33;;;8.00;98.00;;;;;;4994727;28;20461;-67
2023/11/24 04:25:06;;;;;;;1.73;1.20;;;8.00;98.00;;;;;;4994737;28;20462;-68
2023/11/24 04:27:33;;;;;;;1.60;1.37;;;8.00;98.00;;;;;;4994670;28;20541;-67
2023/11/24 04:30:01;;;;;;;1.40;1.30;;;8.10;98.00;;;;;;4994711;28;20490;-67
2023/11/24 04:32:28;;;;;;;1.90;1.50;;;8.00;98.00;;;;;;4994867;28;20463;-67
2023/11/24 04:34:56;;;;;;;1.50;1.20;;;8.10;98.00;;;;;;4994642;28;20467;-67
2023/11/24 04:37:23;;;;;;;1.40;1.20;;;8.10;98.00;;;;;;4994494;28;20473;-67
2023/11/24 04:39:50;;;;;;;1.83;1.50;;;8.00;98.00;;;;;;4993217;28;20951;-67
2023/11/24 04:42:21;;;;;;;1.83;1.40;;;8.00;98.00;;;;;;4994385;28;20463;-67
2023/11/24 04:44:48;;;;;;;1.40;1.30;;;8.00;98.00;;;;;;5009183;28;20510;-67
2023/11/24 04:47:16;;;;;;;1.60;1.20;;;8.00;98.00;;;;;;4994173;28;20450;-67
2023/11/24 04:49:43;;;;;;;1.20;1.20;;;8.00;98.00;;;;;;5008898;28;20493;-67
2023/11/24 04:52:12;;;;;;;1.90;1.30;;;8.00;98.00;;;;;;4994185;28;20552;-67
2023/11/24 04:54:41;;;;;;;1.57;1.30;;;8.00;98.00;;;;;;5009058;28;20450;-67
2023/11/24 04:57:09;;;;;;;1.40;1.30;;;8.00;98.00;;;;;;4994192;28;20453;-67
2023/11/24 04:59:40;;;;;;;1.30;1.17;;;8.10;98.00;;;;;;4994227;28;20508;-67
2023/11/24 05:02:07;;;;;;;1.20;1.20;;;8.10;98.00;;;;;;4994117;28;20473;-67
2023/11/24 05:04:36;;;;;;;7.23;1.57;;;8.20;98.00;;;;;;5009136;28;20488;-67
2023/11/24 05:07:04;;;;;;;1.30;1.20;;;8.30;98.00;;;;;;4994109;28;21049;-66
2023/11/24 05:09:31;;;;;;;1.77;1.50;;;8.30;98.00;;;;;;4993981;28;20481;-67
2023/11/24 05:11:58;;;;;;;1.50;1.33;;;8.30;98.00;;;;;;4994127;28;20461;-68
2023/11/24 05:14:26;;;;;;;2.23;1.50;;;8.30;98.00;;;;;;4993974;28;20489;-67
2023/11/24 05:16:54;;;;;;;1.40;1.20;;;8.30;98.00;;;;;;4993595;28;20990;-68
2023/11/24 05:19:22;;;;;;;2.40;1.40;;;8.30;98.00;;;;;;4993532;28;20460;-68
2023/11/24 05:21:49;;;;;;;3.63;1.70;;;8.30;98.00;;;;;;5008687;28;20457;-67
2023/11/24 05:24:16;;;;;;;2.80;1.87;;;8.40;98.00;;;;;;4993565;28;20995;-67
2023/11/24 05:26:44;;;;;;;7.43;1.90;;;8.30;98.00;;;;;;4993703;28;20491;-67
2023/11/24 05:29:11;;;;;;;3.60;2.00;;;8.30;98.00;;;;;;4993668;28;20560;-68
2023/11/24 05:31:38;;;;;;;2.40;1.70;;;8.20;98.00;;;;;;4993737;28;21046;-69
2023/11/24 05:34:07;;;;;;;6.83;1.90;;;8.10;98.00;;;;;;4993745;28;20500;-67
2023/11/24 05:36:34;;;;;;;4.30;1.83;;;8.00;98.00;;;;;;4993396;28;20462;-68
2023/11/24 05:39:02;;;;;;;4.13;2.00;;;8.00;98.00;;;;;;4993349;28;20466;-68
2023/11/24 05:41:29;;;;;;;3.70;1.77;;;8.00;98.00;;;;;;4993521;28;20954;-67
2023/11/24 05:43:57;;;;;;;3.40;1.90;;;7.90;98.00;;;;;;4993449;28;20450;-67
2023/11/24 05:46:24;;;;;;;5.30;2.07;;;7.80;98.00;;;;;;4993293;28;20493;-67
2023/11/24 05:48:51;;;;;;;3.30;1.90;;;7.70;98.00;;;;;;4993525;28;20498;-67
2023/11/24 05:51:20;;;;;;;4.70;2.13;;;7.80;98.00;;;;;;4993527;28;20483;-68
2023/11/24 05:53:47;;;;;;;5.03;2.00;;;7.80;98.00;;;;;;4993511;28;20477;-68
2023/11/24 05:56:15;;;;;;;4.70;1.80;;;7.80;98.00;;;;;;4992866;28;20471;-68
2023/11/24 05:58:43;;;;;;;3.50;1.93;;;7.70;98.00;;;;;;4993057;28;20961;-68
2023/11/24 06:01:10;;;;;;;2.10;1.80;;;7.70;98.00;;;;;;4992840;28;20496;-68
2023/11/24 06:03:37;;;;;;;4.23;2.10;;;7.60;98.00;;;;;;4993083;28;20537;-67
2023/11/24 06:06:05;;;;;;;1.90;1.80;;;7.50;98.00;;;;;;4993100;28;20458;-68
2023/11/24 06:08:34;;;;;;;4.90;1.87;;;7.50;98.00;;;;;;4992865;28;20497;-68
2023/11/24 06:11:01;;;;;;;2.17;1.60;;;7.40;98.00;;;;;;4992308;28;20487;-67
2023/11/24 06:13:28;;;;;;;6.77;1.73;;;7.40;98.00;;;;;;4992370;28;20464;-66
2023/11/24 06:15:57;;;;;;;1.73;1.40;;;7.30;98.00;;;;;;4992311;28;21055;-68
2023/11/24 06:18:24;;;;;;;2.70;1.80;;;7.20;98.00;;;;;;5007482;28;20979;-67
2023/11/24 06:20:51;;;;;;;5.47;1.77;;;7.20;98.00;;;;;;4992440;28;20446;-68
2023/11/24 06:23:18;;;;;;;1.93;1.40;;;7.30;98.00;;;;;;4992302;28;20453;-67
2023/11/24 06:25:47;;;;;;;8.53;2.30;;;7.20;98.00;;;;;;4992719;28;20448;-67
2023/11/24 06:28:15;;;;;;;3.27;1.87;;;7.20;98.00;;;;;;4992557;28;20505;-68
2023/11/24 06:30:42;;;;;;;4.80;1.80;;;7.20;98.00;;;;;;5006869;28;20782;-67
2023/11/24 06:33:10;;;;;;;4.17;2.10;;;7.20;98.00;;;;;;4992593;28;20457;-67
2023/11/24 06:35:38;;;;;;;8.20;2.23;;;7.20;98.00;;;;;;5007618;28;21015;-67
2023/11/24 06:38:05;;;;;;;6.47;2.00;;;7.20;98.00;;;;;;4992325;28;20480;-68
2023/11/24 06:40:32;;;;;;;3.93;2.13;;;7.20;98.00;;;;;;4992333;28;20460;-67
2023/11/24 06:43:00;;;;;;;3.53;1.93;;;7.20;98.00;;;;;;4992259;28;20839;-68
2023/11/24 06:45:28;;;;;;;3.77;1.90;;;7.20;98.00;;;;;;4992176;28;20515;-67
2023/11/24 06:47:55;;;;;;;6.17;2.30;;;7.20;98.00;;;;;;4990956;28;20471;-67
2023/11/24 06:50:23;;;;;;;2.73;1.80;;;7.10;98.00;;;;;;4992426;28;20484;-67
2023/11/24 06:52:51;;;;;;;6.33;1.80;;;7.00;98.00;;;;;;4992163;28;20471;-67
2023/11/24 06:55:18;;;;;;;3.20;1.70;;;7.10;98.00;;;;;;5007062;28;20460;-67
2023/11/24 06:57:45;;;;;;;5.70;2.20;;;7.20;98.00;;;;;;4992429;28;20452;-67
2023/11/24 07:00:17;;;;;;;2.97;1.93;;;7.30;98.00;;;;;;5007089;28;20446;-66
2023/11/24 07:02:45;;;;;;;5.13;1.93;;;7.30;98.00;;;;;;4992118;28;20559;-67
2023/11/24 07:05:12;;;;;;;3.40;2.20;;;7.40;98.00;;;;;;4992002;28;20470;-67
2023/11/24 07:07:41;;;;;;;5.73;1.87;;;7.40;98.00;;;;;;4992131;28;20816;-68
2023/11/24 07:10:13;;;;;;;4.73;2.27;;;7.40;98.00;;;;;;5006633;28;21023;-62
2023/11/24 07:12:43;;;;;;;6.30;1.90;;;7.50;98.00;;;;;;4992014;28;20587;-62
2023/11/24 07:15:13;;;;;;;2.07;1.77;;;7.50;98.00;;;;;;4992225;28;20460;-64
2023/11/24 07:17:41;;;;;;;3.03;1.97;;;7.60;98.00;;;;;;4991989;28;20463;-62
2023/11/24 07:20:11;;;;;;;5.23;2.10;;;7.70;98.00;;;;;;4991882;28;20461;-62
2023/11/24 07:22:38;;;;;;;4.17;2.00;;;7.60;98.00;;;;;;4992226;28;20600;-62
2023/11/24 07:25:07;;;;;;;6.20;2.63;;;7.50;98.00;;;;;;4992277;28;20466;-62
2023/11/24 07:27:34;;;;;;;5.87;2.67;;;7.60;98.00;;;;;;5007243;28;20558;-62
2023/11/24 07:30:01;;;;;;;3.17;2.17;;;7.70;98.00;;;;;;4991901;28;20484;-63
2023/11/24 07:32:29;;;;;;;6.47;2.57;;;7.70;98.00;;;;;;4991856;28;20484;-62
2023/11/24 07:34:56;;;;;;;5.40;2.60;;;7.70;98.00;;;;;;4992047;28;20469;-64
2023/11/24 07:37:26;;;;;;;3.70;2.20;;;7.70;98.00;;;;;;4992123;28;20461;-62
2023/11/24 07:39:59;;;;;;;5.27;2.10;;;7.70;98.00;;;;;;4992014;28;20496;-63
2023/11/24 07:42:26;;;;;;;2.27;1.77;;;7.70;98.00;;;;;;4993345;28;20459;-63
2023/11/24 07:44:53;;;;;;;5.40;2.17;;;7.80;98.00;;;;;;4994599;28;20549;-62
2023/11/24 07:47:21;;;;;;;4.93;2.00;;;7.70;98.00;;;;;;5010494;28;20958;-61
2023/11/24 07:49:49;;;;;;;2.43;1.47;;;7.60;98.00;;;;;;4995457;28;20488;-63
2023/11/24 07:52:16;;;;;;;2.73;1.90;;;7.60;98.00;;;;;;4996702;28;20459;-63
2023/11/24 07:54:43;;;;;;;3.90;2.10;;;7.50;98.00;;;;;;4995552;28;20870;-63
2023/11/24 07:57:10;;;;;;;2.53;2.00;;;7.70;98.00;;;;;;4995776;28;20493;-63
2023/11/24 07:59:37;;;;;;;8.07;1.90;;;7.70;98.00;;;;;;4996024;28;21066;-62
2023/11/24 08:02:05;;;;;;;8.80;2.33;;;7.70;98.00;;;;;;4995990;28;20466;-63
2023/11/24 08:04:32;;;;;;;2.87;1.90;;;7.60;98.00;;;;;;4996059;28;20458;-62
2023/11/24 08:07:00;;;;;;;7.20;1.93;;;7.50;98.00;;;;;;4995732;28;20462;-62
2023/11/24 08:09:27;;;;;;;3.93;1.80;;;7.50;98.00;;;;;;4995703;28;20500;-63
2023/11/24 08:11:55;;;;;;;4.53;2.10;;;7.50;98.00;;;;;;4995750;28;20487;-63
2023/11/24 08:14:23;;;;;;;2.63;1.87;;;7.40;98.00;;;;;;4995940;28;20465;-62
2023/11/24 08:16:51;;;;;;;3.40;1.60;;;7.60;98.00;;;;;;4995726;28;20834;-62
2023/11/24 08:19:22;;;;;;;2.40;1.77;;;7.60;98.00;;;;;;4995654;28;20457;-63
2023/11/24 08:21:49;;;;;;;4.43;2.00;;;7.50;98.00;;;;;;4995659;28;21002;-63
2023/11/24 08:24:18;;;;;;;6.77;2.00;;;7.60;98.00;;;;;;4995673;28;20544;-61
2023/11/24 08:26:46;;;;;;;9.50;2.13;;;7.60;98.00;;;;;;4995481;28;20444;-62
2023/11/24 08:29:15;;;;;;;5.30;1.80;;;7.50;98.00;;;;;;4995343;28;20449;-62
2023/11/24 08:31:44;;;;;;;6.80;2.00;;;7.40;98.00;;;;;;4995423;28;20498;-62
2023/11/24 08:34:13;;;;;;;4.03;2.03;;;7.40;98.00;;;;;;4995428;28;20451;-62
2023/11/24 08:36:40;;;;;;;4.93;2.20;;;7.30;98.00;;;;;;4995264;28;20484;-62
2023/11/24 08:39:12;;;;;;;4.03;1.70;;;7.40;98.00;;;;;;4995440;28;20470;-63
2023/11/24 08:41:44;;;;;;;11.23;2.20;;;7.40;98.00;;;;;;5009694;28;20521;-64
2023/11/24 08:44:12;;;;;;;2.10;1.50;;;7.70;98.00;;;;;;4995489;28;20515;-62
2023/11/24 08:46:39;;;;;;;2.60;1.73;;;8.30;98.00;;;;;;4995098;28;20466;-62
2023/11/24 08:49:08;;;;;;;2.43;1.80;;;8.40;98.00;;;;;;4995285;28;20454;-61
2023/11/24 08:51:36;;;;;;;2.17;1.60;;;8.30;98.00;;;;;;4995005;28;20485;-62
2023/11/24 08:54:04;;;;;;;2.70;1.70;;;8.30;98.00;;;;;;4994430;28;20553;-62
2023/11/24 08:56:31;;;;;;;2.90;1.80;;;8.30;98.00;;;;;;4993187;28;20895;-62
2023/11/24 08:59:00;;;;;;;6.03;2.10;;;8.10;98.00;;;;;;4994348;28;20456;-62
2023/11/24 09:01:27;;;;;;;3.40;1.90;;;8.00;98.00;;;;;;4994504;28;20465;-63
2023/11/24 09:03:54;;;;;;;3.67;1.50;;;7.90;98.00;;;;;;4994126;28;20463;-62
2023/11/24 09:06:26;;;;;;;2.37;1.50;;;7.80;98.00;;;;;;4994117;28;20453;-62
2023/11/24 09:08:54;;;;;;;3.43;1.93;;;7.80;98.00;;;;;;4993923;28;20545;-62
2023/11/24 09:11:22;;;;;;;6.80;2.07;;;7.80;98.00;;;;;;4993957;28;21004;-62
2023/11/24 09:13:51;;;;;;;4.47;1.90;;;7.80;98.00;;;;;;4993759;28;20457;-61
2023/11/24 09:16:20;;;;;;;3.07;1.70;;;7.70;98.00;;;;;;4992713;28;20465;-62
2023/11/24 09:18:47;;;;;;;3.57;2.10;;;7.80;98.00;;;;;;5007319;28;20486;-62
2023/11/24 09:21:17;;;;;;;3.87;2.20;;;7.90;98.00;;;;;;4973165;28;20458;-62
2023/11/24 09:23:44;;;;;;;7.93;2.60;;;7.90;98.00;;;;;;4989303;28;20943;-61
2023/11/24 09:26:12;;;;;;;13.23;2.97;;;7.90;98.00;;;;;;5013105;28;20461;-62
2023/11/24 09:28:39;;;;;;;4.77;2.50;;;7.90;98.00;;;;;;5013312;28;20485;-62
2023/11/24 09:31:09;;;;;;;6.13;2.33;;;8.00;98.00;;;;;;5013174;28;20511;-63
2023/11/24 09:33:41;;;;;;;5.00;2.10;;;7.90;98.00;;;;;;5013412;28;20890;-62
2023/11/24 09:36:09;;;;;;;10.13;2.83;;;7.90;98.00;;;;;;5011955;28;20463;-62
2023/11/24 09:38:38;;;;;;;3.87;2.43;;;7.90;98.00;;;;;;5013128;28;20459;-61
2023/11/24 09:41:08;;;;;;;6.90;2.57;;;8.00;98.00;;;;;;5013047;28;20832;-61
2023/11/24 09:43:37;;;;;;;5.00;3.00;;;8.10;98.00;;;;;;5012777;28;20453;-63
2023/11/24 09:46:04;;;;;;;5.37;2.40;;;8.20;98.00;;;;;;5027796;28;20453;-62
2023/11/24 09:48:33;;;;;;;4.33;2.90;;;8.20;98.00;;;;;;5012810;28;20469;-63
2023/11/24 09:51:06;;;;;;;7.30;2.20;;;8.20;98.00;;;;;;5012972;28;21013;-63
2023/11/24 09:53:34;;;;;;;7.37;2.60;;;8.30;98.00;;;;;;5028006;28;20465;-63
2023/11/24 09:56:02;;;;;;;3.87;2.20;;;8.20;98.00;;;;;;5012548;28;20833;-62
2023/11/24 09:58:29;;;;;;;4.57;2.23;;;8.30;98.00;;;;;;5012579;28;20527;-62
2023/11/24 10:01:05;;;;;;;11.93;2.80;;;8.30;98.00;;;;;;5012650;28;20447;-63
2023/11/24 10:03:38;;;;;;;5.70;2.77;;;8.30;98.00;;;;;;5012646;28;20458;-64
2023/11/24 10:06:11;;;;;;;5.10;2.33;;;8.30;98.00;;;;;;5012589;28;20462;-61
2023/11/24 10:08:39;;;;;;;2.90;1.90;;;8.40;98.00;;;;;;5011124;28;20498;-63
2023/11/24 10:11:27;;;;;;;5.33;2.47;;;8.40;98.00;;;;;;5012304;28;20481;-63
2023/11/24 10:13:56;;;;;;;4.43;1.83;;;8.30;98.00;;;;;;4996529;28;20485;-64
2023/11/24 10:16:24;;;;;;;5.27;2.20;;;8.30;98.00;;;;;;4993167;28;20455;-62
2023/11/24 10:18:51;;;;;;;6.10;2.50;;;8.30;98.00;;;;;;4992926;28;20462;-63
2023/11/24 10:21:24;;;;;;;10.27;2.43;;;8.30;98.00;;;;;;4993289;28;20472;-62
2023/11/24 10:23:51;;;;;;;4.50;2.37;;;8.30;98.00;;;;;;4993251;28;20924;-63
2023/11/24 10:26:18;;;;;;;6.07;2.57;;;8.30;98.00;;;;;;4992981;28;20494;-62
2023/11/24 10:28:52;;;;;;;3.53;2.17;;;8.20;98.00;;;;;;4993281;28;20454;-63
2023/11/24 10:31:19;;;;;;;5.47;2.00;;;8.10;98.00;;;;;;4991979;28;20489;-64
2023/11/24 10:33:47;;;;;;;6.20;2.00;;;8.10;98.00;;;;;;4993205;28;20457;-63
2023/11/24 10:36:17;;;;;;;12.10;2.40;;;8.20;98.00;;;;;;4993187;28;20466;-62
2023/11/24 10:38:47;;;;;;;3.47;1.80;;;8.20;98.00;;;;;;4993128;28;20450;-63
2023/11/24 10:41:19;;;;;;;3.80;2.10;;;8.20;98.00;;;;;;4993086;28;20465;-63
2023/11/24 10:43:49;;;;;;;3.67;2.10;;;8.20;98.00;;;;;;4991854;28;20463;-63
2023/11/24 10:46:20;;;;;;;4.90;2.00;;;8.20;98.00;;;;;;4993030;28;20550;-62
2023/11/24 10:48:49;;;;;;;8.50;2.43;;;8.20;98.00;;;;;;4992980;28;20457;-62
2023/11/24 10:51:27;;;;;;;9.07;2.20;;;8.10;98.00;;;;;;4992896;28;20516;-63
2023/11/24 10:54:01;;;;;;;8.70;2.10;;;8.00;98.00;;;;;;4992631;28;21058;-63
2023/11/24 10:56:32;;;;;;;3.60;1.80;;;8.00;98.00;;;;;;4992740;28;20461;-63
2023/11/24 10:59:05;;;;;;;4.23;2.13;;;7.90;98.00;;;;;;4992687;28;20461;-63
2023/11/24 11:01:33;;;;;;;2.27;1.60;;;7.90;98.00;;;;;;4991958;28;20456;-63
2023/11/24 11:04:00;;;;;;;2.70;1.53;;;7.90;98.00;;;;;;4991744;28;20461;-63
2023/11/24 11:06:38;;;;;;;4.60;1.70;;;7.90;98.00;;;;;;4992492;28;20504;-63
2023/11/24 11:09:23;;;;;;;4.07;1.93;;;7.90;98.00;;;;;;4991438;28;20549;-63
2023/11/24 11:12:19;;;;;;;5.80;1.97;;;7.80;98.00;;;;;;5007092;28;20479;-63
2023/11/24 11:14:49;;;;;;;7.63;2.30;;;7.80;98.00;;;;;;5012098;28;20491;-63
2023/11/24 11:17:19;;;;;;;3.77;2.30;;;7.80;98.00;;;;;;5011126;28;20469;-62
2023/11/24 11:19:58;;;;;;;3.87;2.03;;;7.90;98.00;;;;;;5012282;28;20554;-63
2023/11/24 11:22:29;;;;;;;7.00;2.20;;;7.80;98.00;;;;;;5011912;28;20551;-63
2023/11/24 11:25:37;;;;;;;2.70;1.87;;;7.90;98.00;;;;;;5011714;28;20493;-63
2023/11/24 11:28:34;;;;;;;8.60;2.40;;;8.00;98.00;;;;;;5011710;28;20986;-63
2023/11/24 11:31:22;;;;;;;5.30;2.20;;;8.00;98.00;;;;;;5011605;28;20487;-63
2023/11/24 11:33:49;;;;;;;2.70;2.27;;;8.00;98.00;;;;;;5011653;28;20455;-63
2023/11/24 11:36:19;;;;;;;8.00;2.70;;;8.00;98.00;;;;;;5011638;28;20448;-62
2023/11/24 11:38:51;;;;;;;6.37;2.67;;;8.10;98.00;;;;;;5011896;28;20496;-62
2023/11/24 11:41:44;;;;;;;5.57;2.57;;;8.10;98.00;;;;;;5010769;28;20939;-62
2023/11/24 11:44:19;;;;;;;12.43;3.00;;;8.20;98.00;;;;;;5011705;28;20871;-63
2023/11/24 11:47:10;;;;;;;4.43;2.10;;;8.30;98.00;;;;;;5010407;28;20948;-63
2023/11/24 11:49:40;;;;;;;6.00;2.30;;;8.20;98.00;;;;;;5011808;28;20455;-62
2023/11/24 11:52:10;;;;;;;3.50;2.13;;;8.20;98.00;;;;;;5011522;28;20543;-62
2023/11/24 11:54:39;;;;;;;4.67;2.53;;;8.20;98.00;;;;;;5011567;28;20460;-62
2023/11/24 11:57:08;;;;;;;8.43;2.70;;;8.20;98.00;;;;;;5011681;28;20460;-63
2023/11/24 11:59:36;;;;;;;7.43;2.43;;;8.20;98.00;;;;;;5011528;28;20544;-63
2023/11/24 12:02:05;;;;;;;10.10;2.57;;;8.20;98.00;;;;;;5011350;28;20461;-63
2023/11/24 12:04:33;;;;;;;3.57;2.00;;;8.20;98.00;;;;;;5012036;28;20986;-62
2023/11/24 12:07:01;;;;;;;4.50;2.00;;;8.20;98.00;;;;;;5011616;28;20845;-62
2023/11/24 12:09:31;;;;;;;4.40;2.23;;;8.20;98.00;;;;;;5011455;28;20460;-62
2023/11/24 12:11:58;;;;;;;3.00;1.90;;;8.20;98.00;;;;;;5011457;28;20539;-62
2023/11/24 12:14:26;;;;;;;2.70;1.70;;;8.10;98.00;;;;;;5011897;28;20529;-63
2023/11/24 12:16:56;;;;;;;5.83;2.20;;;8.10;98.00;;;;;;5011584;28;20890;-62
2023/11/24 12:19:29;;;;;;;4.90;2.23;;;7.90;98.00;;;;;;5011608;28;20456;-63
2023/11/24 12:21:58;;;;;;;4.30;1.77;;;7.90;98.00;;;;;;5011449;28;20532;-63
2023/11/24 12:24:27;;;;;;;3.50;1.83;;;7.80;98.00;;;;;;5011589;28;20459;-63
2023/11/24 12:26:57;;;;;;;6.30;2.10;;;7.80;98.00;;;;;;5011243;28;20550;-63
2023/11/24 12:29:28;;;;;;;3.10;2.23;;;7.80;98.00;;;;;;5012720;28;20466;-63
2023/11/24 12:31:55;;;;;;;5.80;2.10;;;7.80;98.00;;;;;;5015025;28;20491;-63
2023/11/24 12:34:24;;;;;;;6.17;2.23;;;7.80;98.00;;;;;;5014187;28;20459;-62
2023/11/24 12:36:54;;;;;;;4.30;2.00;;;7.80;98.00;;;;;;5014180;28;20463;-63
2023/11/24 12:39:24;;;;;;;3.63;2.17;;;7.90;98.00;;;;;;5014235;28;20960;-63
2023/11/24 12:41:55;;;;;;;4.17;2.23;;;8.00;98.00;;;;;;5014132;28;20490;-62
2023/11/24 12:44:22;;;;;;;5.60;2.20;;;8.00;98.00;;;;;;5014185;28;20470;-63
2023/11/24 12:46:50;;;;;;;8.50;2.30;;;8.10;98.00;;;;;;5014205;28;20462;-63
2023/11/24 12:49:17;;;;;;;5.63;2.17;;;7.90;98.00;;;;;;5014404;28;20454;-63
2023/11/24 12:51:47;;;;;;;7.70;2.30;;;7.90;98.00;;;;;;5014101;28;20988;-62
2023/11/24 12:54:18;;;;;;;3.07;2.20;;;7.80;98.00;;;;;;5013713;28;20531;-63
2023/11/24 12:56:46;;;;;;;10.43;2.20;;;7.60;98.00;;;;;;5013893;28;20463;-62
2023/11/24 12:59:13;;;;;;;3.20;1.80;;;7.70;98.00;;;;;;5013533;28;20470;-63
2023/11/24 13:01:40;;;;;;;5.70;1.70;;;7.70;98.00;;;;;;5014229;28;20462;-63
2023/11/24 13:04:09;;;;;;;4.70;2.07;;;7.60;98.00;;;;;;5012931;28;20459;-63
2023/11/24 13:06:36;;;;;;;7.57;2.57;;;7.60;98.00;;;;;;5013704;28;20491;-62